Wetterdaten: Woche 27.11.23 - 03.12.23 (KW48)
Datum Zeit Temp. A. Feuchte A. Luftdruck Regen Wind Richtung Taupunkt Windchill
27.11.2023 01:00 2,2 C 92 % 1015 hPa 4,1 l/m 0,0 km/h (0 Bft) S-SW 1,0 C 2,2 C
27.11.2023 02:00 2,2 C 92 % 1014 hPa 0,0 l/m 0,0 km/h (0 Bft) S-SW 1,1 C 2,2 C
27.11.2023 03:00 2,3 C 93 % 1014 hPa 0,5 l/m 0,0 km/h (0 Bft) W-SW 1,2 C 2,3 C
27.11.2023 04:00 2,2 C 93 % 1013 hPa 0,0 l/m 0,0 km/h (0 Bft) W-SW 1,2 C 2,2 C
27.11.2023 05:00 2,1 C 93 % 1013 hPa 0,5 l/m 0,0 km/h (0 Bft) W-SW 1,1 C 2,1 C
27.11.2023 06:00 1,9 C 93 % 1013 hPa 0,0 l/m 0,0 km/h (0 Bft) SW 0,9 C 1,9 C
27.11.2023 07:00 1,8 C 93 % 1013 hPa 0,0 l/m 0,0 km/h (0 Bft) SW 0,8 C 1,8 C
27.11.2023 08:00 1,8 C 93 % 1012 hPa 0,0 l/m 0,0 km/h (0 Bft) S-SW 0,8 C 1,8 C
27.11.2023 09:00 2,0 C 93 % 1011 hPa 0,0 l/m 0,0 km/h (0 Bft) S-SO 1,0 C 2,0 C
27.11.2023 10:00 2,6 C 93 % 1011 hPa 0,0 l/m 0,0 km/h (0 Bft) S 1,6 C 2,6 C
27.11.2023 11:00 3,1 C 93 % 1010 hPa 0,0 l/m 0,2 km/h (0 Bft) SW 2,1 C 3,1 C
27.11.2023 12:00 3,4 C 93 % 1008 hPa 0,0 l/m 0,0 km/h (0 Bft) S-SO 2,4 C 3,4 C
27.11.2023 13:00 3,2 C 93 % 1008 hPa 0,0 l/m 0,5 km/h (0 Bft) S-SW 2,2 C 3,2 C
27.11.2023 14:00 2,3 C 92 % 1006 hPa 0,0 l/m 0,0 km/h (0 Bft) S-SO 1,2 C 2,3 C
27.11.2023 15:00 1,6 C 92 % 1005 hPa 0,5 l/m 0,7 km/h (0 Bft) O-SO 0,5 C 1,6 C
27.11.2023 16:00 0,7 C 92 % 1004 hPa 0,5 l/m 0,8 km/h (0 Bft) O-SO -0,5 C 0,5 C
27.11.2023 17:00 0,4 C 92 % 1003 hPa 0,0 l/m 0,0 km/h (0 Bft) O-SO -0,7 C 0,4 C
27.11.2023 18:00 0,4 C 92 % 1002 hPa 0,0 l/m 0,0 km/h (0 Bft) O-SO -0,7 C 0,4 C
27.11.2023 19:00 0,3 C 92 % 1001 hPa 0,0 l/m 0,0 km/h (0 Bft) O-SO -0,7 C 0,3 C
27.11.2023 20:00 0,3 C 92 % 1000 hPa 0,0 l/m 0,0 km/h (0 Bft) O-SO -0,9 C 0,3 C
27.11.2023 21:00 0,3 C 92 % 999 hPa 0,0 l/m 0,0 km/h (0 Bft) O-SO -0,8 C 0,3 C
27.11.2023 22:00 0,3 C 93 % 999 hPa 0,0 l/m 0,0 km/h (0 Bft) O-SO -0,7 C 0,3 C
27.11.2023 23:00 0,2 C 93 % 998 hPa 0,5 l/m 0,0 km/h (0 Bft) O-SO -0,8 C 0,2 C
28.11.2023 00:00 0,2 C 93 % 998 hPa 0,0 l/m 0,0 km/h (0 Bft) O -0,8 C 0,2 C
28.11.2023 01:00 0,1 C 93 % 997 hPa 0,0 l/m 0,0 km/h (0 Bft) O -0,9 C 0,1 C
28.11.2023 02:00 0,1 C 93 % 997 hPa 0,5 l/m 0,0 km/h (0 Bft) O -0,9 C 0,1 C
28.11.2023 03:00 0,1 C 93 % 997 hPa 0,0 l/m 0,0 km/h (0 Bft) O -0,9 C 0,1 C
28.11.2023 04:00 0,1 C 93 % 997 hPa 0,0 l/m 0,0 km/h (0 Bft) O -0,9 C 0,1 C
28.11.2023 05:00 -0,0 C 94 % 997 hPa 0,0 l/m 0,0 km/h (0 Bft) O -0,9 C -0,0 C
28.11.2023 06:00 -0,1 C 94 % 998 hPa 0,5 l/m 0,0 km/h (0 Bft) O -1,0 C -0,1 C
28.11.2023 07:00 -0,4 C 94 % 998 hPa 0,0 l/m 0,0 km/h (0 Bft) O -1,2 C -0,4 C
28.11.2023 08:00 -0,9 C 93 % 1000 hPa 0,0 l/m 0,0 km/h (0 Bft) O -1,9 C -0,9 C
28.11.2023 09:00 -1,3 C 93 % 1001 hPa 0,0 l/m 0,0 km/h (0 Bft) O -2,3 C -1,3 C
28.11.2023 10:00 -1,3 C 93 % 1002 hPa 0,0 l/m 0,0 km/h (0 Bft) O -2,2 C -1,3 C
28.11.2023 11:00 -1,6 C 93 % 1003 hPa 0,0 l/m 0,0 km/h (0 Bft) O -2,6 C -1,6 C
28.11.2023 12:00 -1,7 C 93 % 1003 hPa 0,0 l/m 0,0 km/h (0 Bft) O -2,7 C -1,7 C
28.11.2023 13:00 -1,7 C 93 % 1004 hPa 0,0 l/m 0,0 km/h (0 Bft) O -2,7 C -1,7 C
28.11.2023 14:00 -2,0 C 92 % 1006 hPa 0,0 l/m 0,0 km/h (0 Bft) O -3,1 C -2,0 C
28.11.2023 15:00 -2,2 C 92 % 1007 hPa 0,0 l/m 0,0 km/h (0 Bft) O -3,3 C -2,2 C
28.11.2023 16:00 -2,3 C 92 % 1008 hPa 0,0 l/m 0,0 km/h (0 Bft) O -3,4 C -2,3 C
28.11.2023 17:00 -2,7 C 92 % 1009 hPa 0,0 l/m 0,0 km/h (0 Bft) O -3,8 C -2,7 C
28.11.2023 18:00 -2,7 C 92 % 1010 hPa 0,0 l/m 0,0 km/h (0 Bft) O -3,8 C -2,7 C
28.11.2023 19:00 -2,9 C 92 % 1010 hPa 0,0 l/m 0,0 km/h (0 Bft) O -4,0 C -2,9 C
28.11.2023 20:00 -3,1 C 92 % 1011 hPa 0,0 l/m 0,0 km/h (0 Bft) O -4,2 C -3,1 C
28.11.2023 21:00 -3,2 C 92 % 1011 hPa 0,0 l/m 0,0 km/h (0 Bft) O -4,3 C -3,2 C
28.11.2023 22:00 -3,2 C 92 % 1011 hPa 0,0 l/m 0,0 km/h (0 Bft) O -4,3 C -3,2 C
28.11.2023 23:00 -3,1 C 92 % 1011 hPa 0,0 l/m 0,0 km/h (0 Bft) O -4,3 C -3,1 C
29.11.2023 00:00 -3,1 C 92 % 1011 hPa 0,0 l/m 0,0 km/h (0 Bft) O -4,2 C -3,1 C
29.11.2023 01:00 -3,8 C 92 % 1011 hPa 0,0 l/m 0,0 km/h (0 Bft) O -4,9 C -3,8 C
29.11.2023 02:00 -4,9 C 92 % 1010 hPa 0,0 l/m 0,0 km/h (0 Bft) O -6,0 C -4,9 C
29.11.2023 03:00 -5,5 C 92 % 1010 hPa 0,0 l/m 0,0 km/h (0 Bft) O -6,6 C -5,5 C
29.11.2023 04:00 -5,7 C 92 % 1009 hPa 0,0 l/m 0,0 km/h (0 Bft) O -6,9 C -5,7 C
29.11.2023 05:00 -6,0 C 92 % 1008 hPa 0,0 l/m 0,0 km/h (0 Bft) O -7,1 C -6,0 C
29.11.2023 06:00 -5,2 C 92 % 1008 hPa 0,0 l/m 0,0 km/h (0 Bft) O -6,3 C -5,2 C
29.11.2023 07:00 -4,4 C 92 % 1008 hPa 0,0 l/m 0,0 km/h (0 Bft) O -5,4 C -4,4 C
29.11.2023 08:00 -3,9 C 92 % 1008 hPa 0,0 l/m 0,0 km/h (0 Bft) O -5,0 C -3,9 C
29.11.2023 09:00 -3,2 C 92 % 1008 hPa 0,0 l/m 0,0 km/h (0 Bft) O -4,3 C -3,2 C
29.11.2023 10:00 -1,9 C 92 % 1007 hPa 0,0 l/m 0,0 km/h (0 Bft) O -3,0 C -1,9 C
29.11.2023 11:00 -0,2 C 92 % 1007 hPa 0,0 l/m 0,0 km/h (0 Bft) O -1,3 C -0,2 C
29.11.2023 12:00 0,1 C 92 % 1007 hPa 0,0 l/m 0,0 km/h (0 Bft) O -1,1 C 0,1 C
29.11.2023 13:00 0,3 C 91 % 1006 hPa 0,0 l/m 0,6 km/h (0 Bft) O -0,9 C 0,3 C
29.11.2023 14:00 0,4 C 91 % 1006 hPa 0,0 l/m 0,0 km/h (0 Bft) O -0,9 C 0,4 C
29.11.2023 15:00 0,3 C 91 % 1006 hPa 0,0 l/m 0,6 km/h (0 Bft) O -1,0 C 0,3 C
29.11.2023 16:00 0,1 C 91 % 1006 hPa 0,0 l/m 0,0 km/h (0 Bft) O -1,1 C 0,1 C
29.11.2023 17:00 0,2 C 92 % 1006 hPa 0,0 l/m 0,0 km/h (0 Bft) O -1,0 C 0,2 C
29.11.2023 18:00 0,2 C 92 % 1007 hPa 0,0 l/m 0,0 km/h (0 Bft) O -1,0 C 0,2 C
29.11.2023 19:00 -0,1 C 92 % 1007 hPa 0,0 l/m 0,0 km/h (0 Bft) O -1,3 C -0,1 C
29.11.2023 20:00 -0,2 C 92 % 1008 hPa 0,0 l/m 0,0 km/h (0 Bft) O -1,4 C -0,2 C
29.11.2023 21:00 -0,2 C 92 % 1008 hPa 0,0 l/m 0,0 km/h (0 Bft) O -1,3 C -0,2 C
29.11.2023 22:00 -0,4 C 92 % 1008 hPa 0,0 l/m 0,0 km/h (0 Bft) O -1,5 C -0,4 C
29.11.2023 23:00 -0,7 C 92 % 1008 hPa 0,0 l/m 0,0 km/h (0 Bft) O -1,8 C -0,7 C
30.11.2023 00:00 -0,9 C 92 % 1008 hPa 0,0 l/m 0,0 km/h (0 Bft) O -2,0 C -0,9 C
30.11.2023 01:00 -0,8 C 92 % 1008 hPa 0,0 l/m 0,0 km/h (0 Bft) O -1,9 C -0,8 C
30.11.2023 02:00 -1,1 C 92 % 1008 hPa 0,0 l/m 0,0 km/h (0 Bft) O -2,2 C -1,1 C
30.11.2023 03:00 -1,6 C 92 % 1008 hPa 0,0 l/m 0,0 km/h (0 Bft) O -2,7 C -1,6 C
30.11.2023 04:00 -2,0 C 92 % 1007 hPa 0,0 l/m 0,0 km/h (0 Bft) O -3,1 C -2,0 C
30.11.2023 05:00 -2,2 C 92 % 1008 hPa 0,0 l/m 0,0 km/h (0 Bft) O -3,4 C -2,2 C
30.11.2023 06:00 -2,2 C 92 % 1007 hPa 0,0 l/m 0,0 km/h (0 Bft) O -3,3 C -2,2 C
30.11.2023 07:00 -2,3 C 92 % 1008 hPa 0,0 l/m 0,0 km/h (0 Bft) O -3,4 C -2,3 C
30.11.2023 08:00 -2,6 C 92 % 1008 hPa 0,0 l/m 0,0 km/h (0 Bft) O -3,7 C -2,6 C
30.11.2023 09:00 -2,1 C 92 % 1008 hPa 0,0 l/m 0,0 km/h (0 Bft) O -3,2 C -2,1 C
30.11.2023 10:00 -0,9 C 93 % 1007 hPa 0,0 l/m 0,0 km/h (0 Bft) W-NW -1,9 C -0,9 C
30.11.2023 11:00 -0,0 C 93 % 1007 hPa 0,0 l/m 0,0 km/h (0 Bft) W-NW -1,0 C -0,0 C
30.11.2023 12:00 0,3 C 93 % 1006 hPa 0,0 l/m 0,0 km/h (0 Bft) W-NW -0,7 C 0,3 C
30.11.2023 13:00 0,4 C 93 % 1006 hPa 0,0 l/m 0,0 km/h (0 Bft) O -0,6 C 0,4 C
30.11.2023 14:00 0,3 C 93 % 1006 hPa 0,0 l/m 0,0 km/h (0 Bft) O -0,8 C 0,3 C
30.11.2023 15:00 -0,1 C 92 % 1006 hPa 0,0 l/m 0,0 km/h (0 Bft) O -1,2 C -0,1 C
30.11.2023 16:00 -0,5 C 92 % 1006 hPa 0,0 l/m 0,4 km/h (0 Bft) O -1,6 C -0,5 C
30.11.2023 17:00 -0,6 C 92 % 1006 hPa 0,0 l/m 0,0 km/h (0 Bft) O -1,7 C -0,6 C
30.11.2023 18:00 -0,6 C 93 % 1006 hPa 0,0 l/m 0,0 km/h (0 Bft) O -1,7 C -0,6 C
30.11.2023 19:00 -0,7 C 93 % 1006 hPa 0,0 l/m 0,0 km/h (0 Bft) O -1,7 C -0,7 C
30.11.2023 20:00 -0,8 C 93 % 1005 hPa 0,0 l/m 0,0 km/h (0 Bft) O -1,7 C -0,8 C
30.11.2023 21:00 -0,7 C 93 % 1006 hPa 0,0 l/m 0,0 km/h (0 Bft) O -1,7 C -0,7 C
30.11.2023 22:00 -0,8 C 93 % 1006 hPa 0,0 l/m 0,0 km/h (0 Bft) O -1,8 C -0,8 C
30.11.2023 23:00 -0,9 C 93 % 1006 hPa 0,0 l/m 0,0 km/h (0 Bft) O -1,9 C -0,9 C
01.12.2023 00:00 -1,0 C 93 % 1006 hPa 0,0 l/m 0,0 km/h (0 Bft) O -1,9 C -1,0 C
01.12.2023 01:00 -1,0 C 93 % 1006 hPa 0,0 l/m 0,0 km/h (0 Bft) O -2,0 C -1,0 C
01.12.2023 02:00 -1,0 C 93 % 1006 hPa 0,0 l/m 0,0 km/h (0 Bft) O -2,0 C -1,0 C
01.12.2023 03:00 -1,1 C 93 % 1006 hPa 0,0 l/m 0,0 km/h (0 Bft) O -2,1 C -1,1 C
01.12.2023 04:00 -1,2 C 93 % 1007 hPa 0,0 l/m 0,0 km/h (0 Bft) O -2,2 C -1,2 C
01.12.2023 05:00 -1,5 C 93 % 1007 hPa 0,0 l/m 0,0 km/h (0 Bft) O -2,5 C -1,5 C
01.12.2023 06:00 -2,0 C 93 % 1007 hPa 0,0 l/m 0,0 km/h (0 Bft) O -3,0 C -2,0 C
01.12.2023 07:00 -2,2 C 93 % 1008 hPa 0,0 l/m 0,0 km/h (0 Bft) O -3,2 C -2,2 C
01.12.2023 08:00 -2,4 C 94 % 1009 hPa 0,0 l/m 0,0 km/h (0 Bft) O -3,2 C -2,4 C
01.12.2023 09:00 -2,4 C 94 % 1009 hPa 0,0 l/m 0,0 km/h (0 Bft) O -3,2 C -2,4 C
01.12.2023 10:00 -2,4 C 94 % 1010 hPa 0,0 l/m 0,0 km/h (0 Bft) O -3,2 C -2,4 C
01.12.2023 11:00 -2,6 C 94 % 1010 hPa 0,0 l/m 0,0 km/h (0 Bft) O -3,4 C -2,6 C
01.12.2023 12:00 -2,6 C 93 % 1010 hPa 0,0 l/m 0,0 km/h (0 Bft) O -3,5 C -2,6 C
01.12.2023 13:00 -2,7 C 93 % 1010 hPa 0,0 l/m 0,1 km/h (0 Bft) O -3,6 C -2,7 C
01.12.2023 14:00 -2,8 C 92 % 1010 hPa 0,0 l/m 0,0 km/h (0 Bft) O -3,9 C -2,8 C
01.12.2023 15:00 -3,1 C 92 % 1010 hPa 0,0 l/m 0,0 km/h (0 Bft) O -4,2 C -3,1 C
01.12.2023 16:00 -3,2 C 92 % 1010 hPa 0,0 l/m 0,0 km/h (0 Bft) O -4,3 C -3,2 C
01.12.2023 17:00 -3,5 C 92 % 1011 hPa 0,0 l/m 0,0 km/h (0 Bft) O -4,6 C -3,5 C
01.12.2023 18:00 -3,7 C 92 % 1011 hPa 0,0 l/m 0,0 km/h (0 Bft) O -4,8 C -3,7 C
01.12.2023 19:00 -4,0 C 92 % 1011 hPa 0,0 l/m 0,0 km/h (0 Bft) O -5,1 C -4,0 C
01.12.2023 20:00 -4,2 C 92 % 1011 hPa 0,0 l/m 0,5 km/h (0 Bft) O -5,3 C -4,2 C
01.12.2023 21:00 -4,2 C 92 % 1011 hPa 0,0 l/m 0,0 km/h (0 Bft) O -5,3 C -4,2 C
01.12.2023 22:00 -4,3 C 92 % 1011 hPa 0,0 l/m 0,0 km/h (0 Bft) O -5,4 C -4,3 C
01.12.2023 23:00 -4,6 C 92 % 1011 hPa 0,0 l/m 0,0 km/h (0 Bft) O -5,7 C -4,6 C
02.12.2023 00:00 -4,6 C 92 % 1011 hPa 0,0 l/m 0,0 km/h (0 Bft) O -5,7 C -4,6 C
02.12.2023 01:00 -4,6 C 92 % 1011 hPa 0,0 l/m 0,1 km/h (0 Bft) O -5,7 C -4,6 C
02.12.2023 02:00 -4,8 C 92 % 1011 hPa 0,0 l/m 0,0 km/h (0 Bft) O -5,9 C -4,8 C
02.12.2023 03:00 -5,1 C 92 % 1012 hPa 0,0 l/m 0,0 km/h (0 Bft) O -6,2 C -5,1 C
02.12.2023 04:00 -5,2 C 92 % 1011 hPa 0,0 l/m 0,0 km/h (0 Bft) O -6,2 C -5,2 C
02.12.2023 05:00 -5,2 C 92 % 1012 hPa 0,0 l/m 0,0 km/h (0 Bft) O -6,3 C -5,2 C
02.12.2023 06:00 -5,2 C 92 % 1012 hPa 0,0 l/m 0,0 km/h (0 Bft) O -6,3 C -5,2 C
02.12.2023 07:00 -5,3 C 92 % 1012 hPa 0,0 l/m 0,0 km/h (0 Bft) O -6,4 C -5,3 C
02.12.2023 08:00 -5,3 C 92 % 1013 hPa 0,0 l/m 0,0 km/h (0 Bft) O -6,4 C -5,3 C
02.12.2023 09:00 -5,0 C 92 % 1013 hPa 0,0 l/m 0,0 km/h (0 Bft) O -6,1 C -5,0 C
02.12.2023 10:00 -4,2 C 92 % 1014 hPa 0,0 l/m 0,0 km/h (0 Bft) O -5,3 C -4,2 C
02.12.2023 11:00 -3,5 C 92 % 1014 hPa 0,0 l/m 0,0 km/h (0 Bft) O -4,6 C -3,5 C
02.12.2023 12:00 -3,5 C 91 % 1014 hPa 0,0 l/m 0,0 km/h (0 Bft) O -4,7 C -3,5 C
02.12.2023 13:00 -3,3 C 92 % 1015 hPa 0,0 l/m 0,0 km/h (0 Bft) O -4,4 C -3,3 C
02.12.2023 14:00 -3,5 C 91 % 1015 hPa 0,0 l/m 0,0 km/h (0 Bft) O -4,7 C -3,5 C
02.12.2023 15:00 -3,7 C 91 % 1016 hPa 0,0 l/m 0,0 km/h (0 Bft) O -5,0 C -3,7 C
02.12.2023 16:00 -3,9 C 91 % 1017 hPa 0,0 l/m 0,0 km/h (0 Bft) O -5,1 C -3,9 C
02.12.2023 17:00 -4,3 C 91 % 1018 hPa 0,0 l/m 0,0 km/h (0 Bft) O -5,5 C -4,3 C
02.12.2023 18:00 -5,7 C 91 % 1018 hPa 0,0 l/m 0,0 km/h (0 Bft) O -6,9 C -5,7 C
02.12.2023 19:00 -5,7 C 91 % 1019 hPa 0,0 l/m 0,0 km/h (0 Bft) O -6,9 C -5,7 C
02.12.2023 20:00 -4,9 C 91 % 1019 hPa 0,0 l/m 0,0 km/h (0 Bft) O -6,1 C -4,9 C
02.12.2023 21:00 -4,3 C 91 % 1020 hPa 0,0 l/m 0,0 km/h (0 Bft) O -5,6 C -4,3 C
02.12.2023 22:00 -3,7 C 91 % 1020 hPa 0,0 l/m 0,0 km/h (0 Bft) O -5,0 C -3,7 C
02.12.2023 23:00 -3,1 C 92 % 1021 hPa 0,0 l/m 0,0 km/h (0 Bft) O -4,2 C -3,1 C
03.12.2023 00:00 -3,1 C 92 % 1022 hPa 0,0 l/m 0,0 km/h (0 Bft) O -4,2 C -3,1 C
03.12.2023 01:00 -3,0 C 92 % 1022 hPa 0,0 l/m 0,0 km/h (0 Bft) O -4,1 C -3,0 C
03.12.2023 02:00 -2,9 C 92 % 1023 hPa 0,0 l/m 0,0 km/h (0 Bft) O -4,0 C -2,9 C
03.12.2023 03:00 -3,5 C 92 % 1023 hPa 0,0 l/m 0,0 km/h (0 Bft) O -4,6 C -3,5 C
03.12.2023 04:00 -3,6 C 92 % 1023 hPa 0,0 l/m 0,0 km/h (0 Bft) O -4,7 C -3,6 C
03.12.2023 05:00 -3,5 C 92 % 1024 hPa 0,0 l/m 0,0 km/h (0 Bft) O -4,6 C -3,5 C
03.12.2023 06:00 -3,3 C 92 % 1024 hPa 0,0 l/m 0,0 km/h (0 Bft) O -4,4 C -3,3 C
03.12.2023 07:00 -3,1 C 92 % 1024 hPa 0,0 l/m 0,0 km/h (0 Bft) O -4,2 C -3,1 C
03.12.2023 08:00 -3,1 C 92 % 1024 hPa 0,0 l/m 0,0 km/h (0 Bft) O -4,2 C -3,1 C
03.12.2023 09:00 -2,8 C 92 % 1025 hPa 0,0 l/m 0,0 km/h (0 Bft) O -3,9 C -2,8 C
03.12.2023 10:00 -2,2 C 92 % 1025 hPa 0,0 l/m 0,0 km/h (0 Bft) O -3,2 C -2,2 C
03.12.2023 11:00 -1,4 C 93 % 1026 hPa 0,0 l/m 0,0 km/h (0 Bft) O -2,4 C -1,4 C
03.12.2023 12:00 -1,0 C 92 % 1026 hPa 0,0 l/m 0,0 km/h (0 Bft) O -2,1 C -1,0 C
03.12.2023 13:00 -0,9 C 92 % 1026 hPa 0,0 l/m 0,0 km/h (0 Bft) O -2,0 C -0,9 C
03.12.2023 14:00 -1,0 C 92 % 1026 hPa 0,0 l/m 0,0 km/h (0 Bft) O -2,1 C -1,0 C
03.12.2023 15:00 -1,2 C 92 % 1027 hPa 0,0 l/m 0,0 km/h (0 Bft) O -2,3 C -1,2 C
03.12.2023 16:00 -1,5 C 92 % 1027 hPa 0,0 l/m 0,0 km/h (0 Bft) O -2,7 C -1,5 C
03.12.2023 17:00 -1,7 C 92 % 1027 hPa 0,0 l/m 0,0 km/h (0 Bft) O -2,8 C -1,7 C
03.12.2023 18:00 -1,8 C 92 % 1027 hPa 0,0 l/m 0,0 km/h (0 Bft) O -2,9 C -1,8 C
03.12.2023 19:00 -2,2 C 92 % 1027 hPa 0,0 l/m 0,0 km/h (0 Bft) O -3,3 C -2,2 C
03.12.2023 20:00 -3,5 C 92 % 1027 hPa 0,0 l/m 0,0 km/h (0 Bft) O -4,6 C -3,5 C
03.12.2023 21:00 -4,6 C 92 % 1027 hPa 0,0 l/m 0,0 km/h (0 Bft) O -5,7 C -4,6 C
03.12.2023 22:00 -5,2 C 92 % 1026 hPa 0,0 l/m 0,0 km/h (0 Bft) O -6,3 C -5,2 C
03.12.2023 23:00 -5,5 C 92 % 1026 hPa 0,0 l/m 0,0 km/h (0 Bft) O -6,6 C -5,5 C
Min-Datum _ 02.12.23 02.12.23 28.11.23 - 03.12.23 - 02.12.23 02.12.23
_ Min-Zeit 19:00 18:00 06:00 - 23:00 - 19:00 19:00
Minimum _ -6,1 C 90 % 997 hPa - 0,0 km/h (0 Bft) - -7,3 C -6,1 C
Max-Datum _ 27.11.23 01.12.23 03.12.23 27.11.23 27.11.23 - 27.11.23 27.11.23
_ Max-Zeit 12:00 11:00 19:15 01:05 16:00 - 12:00 12:00
Maximum _ 3,4 C 94 % 1028 hPa 4,1 l/m 9,0 km/h
O-SO (2 Bft)
- 2,4 C 3,4 C
Durchschnitt _ -1,8 C 92 % 1011 hPa #7,8 l/m 0,0 km/h (0 Bft) O -2,9 C -1,8 C